sensor_id;sensor_type;location;lat;lon;timestamp;temperature;humidity
26081;DHT22;13991;51.174;4.438;2022-09-12T00:00:25;17.90;99.90
26081;DHT22;13991;51.174;4.438;2022-09-12T00:02:54;17.90;99.90
26081;DHT22;13991;51.174;4.438;2022-09-12T00:05:21;17.80;99.90
26081;DHT22;13991;51.174;4.438;2022-09-12T00:07:46;17.80;99.90
26081;DHT22;13991;51.174;4.438;2022-09-12T00:10:12;17.80;99.90
26081;DHT22;13991;51.174;4.438;2022-09-12T00:12:38;17.80;99.90
26081;DHT22;13991;51.174;4.438;2022-09-12T00:15:05;17.70;99.90
26081;DHT22;13991;51.174;4.438;2022-09-12T00:17:34;17.70;99.90
26081;DHT22;13991;51.174;4.438;2022-09-12T00:20:00;17.60;99.90
26081;DHT22;13991;51.174;4.438;2022-09-12T00:22:25;17.50;99.90
26081;DHT22;13991;51.174;4.438;2022-09-12T00:24:51;17.60;99.90
26081;DHT22;13991;51.174;4.438;2022-09-12T00:27:16;17.60;99.90
26081;DHT22;13991;51.174;4.438;2022-09-12T00:29:42;17.50;99.90
26081;DHT22;13991;51.174;4.438;2022-09-12T00:32:08;17.50;99.90
26081;DHT22;13991;51.174;4.438;2022-09-12T00:34:34;17.50;99.90
26081;DHT22;13991;51.174;4.438;2022-09-12T00:37:00;17.50;99.90
26081;DHT22;13991;51.174;4.438;2022-09-12T00:39:26;17.50;99.90
26081;DHT22;13991;51.174;4.438;2022-09-12T00:41:51;17.50;99.90
26081;DHT22;13991;51.174;4.438;2022-09-12T00:49:31;17.20;99.90
26081;DHT22;13991;51.174;4.438;2022-09-12T00:52:56;17.30;99.90
26081;DHT22;13991;51.174;4.438;2022-09-12T00:57:28;17.30;99.90
26081;DHT22;13991;51.174;4.438;2022-09-12T01:00:00;17.30;99.90
26081;DHT22;13991;51.174;4.438;2022-09-12T01:02:29;17.30;99.90
26081;DHT22;13991;51.174;4.438;2022-09-12T01:04:55;17.30;99.90
26081;DHT22;13991;51.174;4.438;2022-09-12T01:07:21;17.20;99.90
26081;DHT22;13991;51.174;4.438;2022-09-12T01:09:46;17.20;99.90
26081;DHT22;13991;51.174;4.438;2022-09-12T01:12:15;17.20;99.90
26081;DHT22;13991;51.174;4.438;2022-09-12T01:14:42;17.10;99.90
26081;DHT22;13991;51.174;4.438;2022-09-12T01:17:11;17.00;99.90
26081;DHT22;13991;51.174;4.438;2022-09-12T01:19:56;16.90;99.90
26081;DHT22;13991;51.174;4.438;2022-09-12T01:30:51;16.90;99.90
26081;DHT22;13991;51.174;4.438;2022-09-12T01:33:34;16.80;99.90
26081;DHT22;13991;51.174;4.438;2022-09-12T01:41:10;16.80;99.90
26081;DHT22;13991;51.174;4.438;2022-09-12T01:44:08;16.80;99.90
26081;DHT22;13991;51.174;4.438;2022-09-12T01:49:20;16.70;99.90
26081;DHT22;13991;51.174;4.438;2022-09-12T01:54:37;16.60;99.90
26081;DHT22;13991;51.174;4.438;2022-09-12T01:57:11;16.50;99.90
26081;DHT22;13991;51.174;4.438;2022-09-12T01:59:51;16.50;99.90
26081;DHT22;13991;51.174;4.438;2022-09-12T02:02:34;16.40;99.90
26081;DHT22;13991;51.174;4.438;2022-09-12T02:05:15;16.40;99.90
26081;DHT22;13991;51.174;4.438;2022-09-12T02:10:24;16.50;99.90
26081;DHT22;13991;51.174;4.438;2022-09-12T02:12:58;16.50;99.90
26081;DHT22;13991;51.174;4.438;2022-09-12T02:15:31;16.60;99.90
26081;DHT22;13991;51.174;4.438;2022-09-12T02:18:00;16.60;99.90
26081;DHT22;13991;51.174;4.438;2022-09-12T02:20:29;16.50;99.90
26081;DHT22;13991;51.174;4.438;2022-09-12T02:23:00;16.60;99.90
26081;DHT22;13991;51.174;4.438;2022-09-12T02:25:28;16.60;99.90
26081;DHT22;13991;51.174;4.438;2022-09-12T02:28:10;16.60;99.90
26081;DHT22;13991;51.174;4.438;2022-09-12T02:30:49;16.70;99.90
26081;DHT22;13991;51.174;4.438;2022-09-12T02:33:35;16.50;99.90
26081;DHT22;13991;51.174;4.438;2022-09-12T02:39:23;16.50;99.90
26081;DHT22;13991;51.174;4.438;2022-09-12T02:41:50;16.30;99.90
26081;DHT22;13991;51.174;4.438;2022-09-12T02:44:16;16.30;99.90
26081;DHT22;13991;51.174;4.438;2022-09-12T02:46:49;16.30;99.90
26081;DHT22;13991;51.174;4.438;2022-09-12T02:49:16;16.30;99.90
26081;DHT22;13991;51.174;4.438;2022-09-12T02:51:41;16.40;99.90
26081;DHT22;13991;51.174;4.438;2022-09-12T02:54:08;16.40;99.90
26081;DHT22;13991;51.174;4.438;2022-09-12T02:56:35;16.50;99.90
26081;DHT22;13991;51.174;4.438;2022-09-12T02:59:06;16.50;99.90
26081;DHT22;13991;51.174;4.438;2022-09-12T03:07:12;16.40;99.90
26081;DHT22;13991;51.174;4.438;2022-09-12T03:12:51;16.30;99.90
26081;DHT22;13991;51.174;4.438;2022-09-12T03:18:06;16.30;99.90
26081;DHT22;13991;51.174;4.438;2022-09-12T03:21:02;16.20;99.90
26081;DHT22;13991;51.174;4.438;2022-09-12T03:23:37;16.20;99.90
26081;DHT22;13991;51.174;4.438;2022-09-12T03:26:15;16.10;99.90
26081;DHT22;13991;51.174;4.438;2022-09-12T03:28:45;16.20;99.90
26081;DHT22;13991;51.174;4.438;2022-09-12T03:31:14;16.20;99.90
26081;DHT22;13991;51.174;4.438;2022-09-12T03:33:40;16.20;99.90
26081;DHT22;13991;51.174;4.438;2022-09-12T03:36:06;16.10;99.90
26081;DHT22;13991;51.174;4.438;2022-09-12T03:38:34;16.00;99.90
26081;DHT22;13991;51.174;4.438;2022-09-12T03:41:00;16.00;99.90
26081;DHT22;13991;51.174;4.438;2022-09-12T03:43:25;15.90;99.90
26081;DHT22;13991;51.174;4.438;2022-09-12T03:45:51;16.00;99.90
26081;DHT22;13991;51.174;4.438;2022-09-12T03:48:17;16.00;99.90
26081;DHT22;13991;51.174;4.438;2022-09-12T03:50:43;16.00;99.90
26081;DHT22;13991;51.174;4.438;2022-09-12T03:53:08;16.00;99.90
26081;DHT22;13991;51.174;4.438;2022-09-12T03:55:34;16.10;99.90
26081;DHT22;13991;51.174;4.438;2022-09-12T03:58:00;16.10;99.90
26081;DHT22;13991;51.174;4.438;2022-09-12T04:00:26;16.00;99.90
26081;DHT22;13991;51.174;4.438;2022-09-12T04:02:55;16.10;99.90
26081;DHT22;13991;51.174;4.438;2022-09-12T04:05:22;16.10;99.90
26081;DHT22;13991;51.174;4.438;2022-09-12T04:07:49;16.00;99.90
26081;DHT22;13991;51.174;4.438;2022-09-12T04:10:14;16.00;99.90
26081;DHT22;13991;51.174;4.438;2022-09-12T04:12:40;16.00;99.90
26081;DHT22;13991;51.174;4.438;2022-09-12T04:15:06;16.00;99.90
26081;DHT22;13991;51.174;4.438;2022-09-12T04:17:33;16.00;99.90
26081;DHT22;13991;51.174;4.438;2022-09-12T04:19:59;16.00;99.90
26081;DHT22;13991;51.174;4.438;2022-09-12T04:22:25;15.90;99.90
26081;DHT22;13991;51.174;4.438;2022-09-12T04:24:51;16.00;99.90
26081;DHT22;13991;51.174;4.438;2022-09-12T04:27:17;16.00;99.90
26081;DHT22;13991;51.174;4.438;2022-09-12T04:29:42;16.00;99.90
26081;DHT22;13991;51.174;4.438;2022-09-12T04:32:08;16.10;99.90
26081;DHT22;13991;51.174;4.438;2022-09-12T04:34:34;16.20;99.90
26081;DHT22;13991;51.174;4.438;2022-09-12T04:36:59;16.20;99.90
26081;DHT22;13991;51.174;4.438;2022-09-12T04:39:25;16.10;99.90
26081;DHT22;13991;51.174;4.438;2022-09-12T04:41:51;16.10;99.90
26081;DHT22;13991;51.174;4.438;2022-09-12T04:44:16;16.10;99.90
26081;DHT22;13991;51.174;4.438;2022-09-12T04:46:44;16.10;99.90
26081;DHT22;13991;51.174;4.438;2022-09-12T04:49:11;16.10;99.90
26081;DHT22;13991;51.174;4.438;2022-09-12T04:51:39;16.00;99.90
26081;DHT22;13991;51.174;4.438;2022-09-12T04:54:07;15.90;99.90
26081;DHT22;13991;51.174;4.438;2022-09-12T04:56:37;15.90;99.90
26081;DHT22;13991;51.174;4.438;2022-09-12T04:59:03;15.90;99.90
26081;DHT22;13991;51.174;4.438;2022-09-12T05:01:28;16.10;99.90
26081;DHT22;13991;51.174;4.438;2022-09-12T05:03:56;16.00;99.90
26081;DHT22;13991;51.174;4.438;2022-09-12T05:06:25;16.00;99.90
26081;DHT22;13991;51.174;4.438;2022-09-12T05:08:51;16.00;99.90
26081;DHT22;13991;51.174;4.438;2022-09-12T05:11:20;16.00;99.90
26081;DHT22;13991;51.174;4.438;2022-09-12T05:13:46;16.00;99.90
26081;DHT22;13991;51.174;4.438;2022-09-12T05:16:13;16.00;99.90
26081;DHT22;13991;51.174;4.438;2022-09-12T05:18:42;16.00;99.90
26081;DHT22;13991;51.174;4.438;2022-09-12T05:21:12;16.00;99.90
26081;DHT22;13991;51.174;4.438;2022-09-12T05:23:38;16.10;99.90
26081;DHT22;13991;51.174;4.438;2022-09-12T05:26:05;16.00;99.90
26081;DHT22;13991;51.174;4.438;2022-09-12T05:28:34;16.00;99.90
26081;DHT22;13991;51.174;4.438;2022-09-12T05:33:29;16.00;99.90
26081;DHT22;13991;51.174;4.438;2022-09-12T05:35:55;16.00;99.90
26081;DHT22;13991;51.174;4.438;2022-09-12T05:38:21;16.00;99.90
26081;DHT22;13991;51.174;4.438;2022-09-12T05:40:49;16.10;99.90
26081;DHT22;13991;51.174;4.438;2022-09-12T05:43:15;16.00;99.90
26081;DHT22;13991;51.174;4.438;2022-09-12T05:45:41;16.00;99.90
26081;DHT22;13991;51.174;4.438;2022-09-12T05:48:07;16.00;99.90
26081;DHT22;13991;51.174;4.438;2022-09-12T05:50:32;15.90;99.90
26081;DHT22;13991;51.174;4.438;2022-09-12T05:52:58;16.00;99.90
26081;DHT22;13991;51.174;4.438;2022-09-12T05:55:23;15.90;99.90
26081;DHT22;13991;51.174;4.438;2022-09-12T05:57:50;15.90;99.90
26081;DHT22;13991;51.174;4.438;2022-09-12T06:00:16;15.90;99.90
26081;DHT22;13991;51.174;4.438;2022-09-12T06:02:42;15.90;99.90
26081;DHT22;13991;51.174;4.438;2022-09-12T06:05:08;16.00;99.90
26081;DHT22;13991;51.174;4.438;2022-09-12T06:07:33;16.00;99.90
26081;DHT22;13991;51.174;4.438;2022-09-12T06:10:00;16.00;99.90
26081;DHT22;13991;51.174;4.438;2022-09-12T06:12:28;16.00;99.90
26081;DHT22;13991;51.174;4.438;2022-09-12T06:14:54;16.00;99.90
26081;DHT22;13991;51.174;4.438;2022-09-12T06:17:20;16.20;99.90
26081;DHT22;13991;51.174;4.438;2022-09-12T06:19:46;16.10;99.90
26081;DHT22;13991;51.174;4.438;2022-09-12T06:22:14;16.10;99.90
26081;DHT22;13991;51.174;4.438;2022-09-12T06:24:40;16.20;99.90
26081;DHT22;13991;51.174;4.438;2022-09-12T06:27:06;16.20;99.90
26081;DHT22;13991;51.174;4.438;2022-09-12T06:29:31;16.30;99.90
26081;DHT22;13991;51.174;4.438;2022-09-12T06:31:57;16.30;99.90
26081;DHT22;13991;51.174;4.438;2022-09-12T06:34:23;16.40;99.90
26081;DHT22;13991;51.174;4.438;2022-09-12T06:36:49;16.50;99.90
26081;DHT22;13991;51.174;4.438;2022-09-12T06:39:17;16.70;99.90
26081;DHT22;13991;51.174;4.438;2022-09-12T06:41:44;16.80;99.90
26081;DHT22;13991;51.174;4.438;2022-09-12T06:44:12;16.80;99.90
26081;DHT22;13991;51.174;4.438;2022-09-12T06:46:39;16.90;99.90
26081;DHT22;13991;51.174;4.438;2022-09-12T06:49:05;16.90;99.90
26081;DHT22;13991;51.174;4.438;2022-09-12T06:51:33;17.10;99.90
26081;DHT22;13991;51.174;4.438;2022-09-12T06:54:00;17.30;99.90
26081;DHT22;13991;51.174;4.438;2022-09-12T06:56:26;17.40;99.90
26081;DHT22;13991;51.174;4.438;2022-09-12T06:58:55;17.50;99.90
26081;DHT22;13991;51.174;4.438;2022-09-12T07:01:23;17.60;99.90
26081;DHT22;13991;51.174;4.438;2022-09-12T07:03:53;17.80;99.90
26081;DHT22;13991;51.174;4.438;2022-09-12T07:06:23;17.80;99.90
26081;DHT22;13991;51.174;4.438;2022-09-12T07:08:49;17.90;99.90
26081;DHT22;13991;51.174;4.438;2022-09-12T07:11:17;18.10;99.90
26081;DHT22;13991;51.174;4.438;2022-09-12T07:13:44;18.10;99.90
26081;DHT22;13991;51.174;4.438;2022-09-12T07:16:12;18.30;99.90
26081;DHT22;13991;51.174;4.438;2022-09-12T07:18:38;18.40;99.90
26081;DHT22;13991;51.174;4.438;2022-09-12T07:21:07;18.50;99.90
26081;DHT22;13991;51.174;4.438;2022-09-12T07:23:34;18.50;99.90
26081;DHT22;13991;51.174;4.438;2022-09-12T07:26:00;18.60;99.90
26081;DHT22;13991;51.174;4.438;2022-09-12T07:28:29;18.80;99.90
26081;DHT22;13991;51.174;4.438;2022-09-12T07:30:55;18.90;99.90
26081;DHT22;13991;51.174;4.438;2022-09-12T07:33:22;19.00;99.90
26081;DHT22;13991;51.174;4.438;2022-09-12T07:35:49;19.10;99.90
26081;DHT22;13991;51.174;4.438;2022-09-12T07:38:15;19.20;99.90
26081;DHT22;13991;51.174;4.438;2022-09-12T07:40:41;19.20;99.90
26081;DHT22;13991;51.174;4.438;2022-09-12T07:43:08;19.30;99.90
26081;DHT22;13991;51.174;4.438;2022-09-12T07:45:33;19.40;99.90
26081;DHT22;13991;51.174;4.438;2022-09-12T07:47:59;19.50;99.90
26081;DHT22;13991;51.174;4.438;2022-09-12T07:50:25;19.60;99.90
26081;DHT22;13991;51.174;4.438;2022-09-12T07:52:52;19.60;99.90
26081;DHT22;13991;51.174;4.438;2022-09-12T07:55:19;19.70;99.90
26081;DHT22;13991;51.174;4.438;2022-09-12T07:57:48;19.70;99.90
26081;DHT22;13991;51.174;4.438;2022-09-12T08:00:15;19.80;99.90
26081;DHT22;13991;51.174;4.438;2022-09-12T08:02:40;19.80;99.90
26081;DHT22;13991;51.174;4.438;2022-09-12T08:05:06;19.90;99.90
26081;DHT22;13991;51.174;4.438;2022-09-12T08:07:32;20.00;99.90
26081;DHT22;13991;51.174;4.438;2022-09-12T08:09:58;20.10;99.90
26081;DHT22;13991;51.174;4.438;2022-09-12T08:12:27;20.20;99.90
26081;DHT22;13991;51.174;4.438;2022-09-12T08:14:53;20.20;99.90
26081;DHT22;13991;51.174;4.438;2022-09-12T08:17:19;20.30;99.90
26081;DHT22;13991;51.174;4.438;2022-09-12T08:19:44;20.40;99.90
26081;DHT22;13991;51.174;4.438;2022-09-12T08:22:11;20.50;99.90
26081;DHT22;13991;51.174;4.438;2022-09-12T08:24:37;20.60;99.90
26081;DHT22;13991;51.174;4.438;2022-09-12T08:27:04;20.70;99.90
26081;DHT22;13991;51.174;4.438;2022-09-12T08:29:30;20.80;99.90
26081;DHT22;13991;51.174;4.438;2022-09-12T08:31:56;21.10;99.90
26081;DHT22;13991;51.174;4.438;2022-09-12T08:34:22;21.10;99.90
26081;DHT22;13991;51.174;4.438;2022-09-12T08:36:49;21.20;99.90
26081;DHT22;13991;51.174;4.438;2022-09-12T08:39:15;21.20;99.90
26081;DHT22;13991;51.174;4.438;2022-09-12T08:41:46;21.40;99.90
26081;DHT22;13991;51.174;4.438;2022-09-12T08:49:27;21.20;99.90
26081;DHT22;13991;51.174;4.438;2022-09-12T08:51:54;21.30;99.90
26081;DHT22;13991;51.174;4.438;2022-09-12T08:54:27;21.40;99.90
26081;DHT22;13991;51.174;4.438;2022-09-12T08:56:58;21.60;99.90
26081;DHT22;13991;51.174;4.438;2022-09-12T08:59:31;21.40;99.90
26081;DHT22;13991;51.174;4.438;2022-09-12T09:02:00;21.50;99.90
26081;DHT22;13991;51.174;4.438;2022-09-12T09:08:14;21.90;99.90
26081;DHT22;13991;51.174;4.438;2022-09-12T09:10:39;21.80;99.90
26081;DHT22;13991;51.174;4.438;2022-09-12T09:13:22;21.90;99.90
26081;DHT22;13991;51.174;4.438;2022-09-12T09:18:48;22.20;99.90
26081;DHT22;13991;51.174;4.438;2022-09-12T09:21:25;22.30;99.90
26081;DHT22;13991;51.174;4.438;2022-09-12T09:23:59;22.40;99.90
26081;DHT22;13991;51.174;4.438;2022-09-12T09:26:29;22.40;99.90
26081;DHT22;13991;51.174;4.438;2022-09-12T09:29:05;22.50;99.90
26081;DHT22;13991;51.174;4.438;2022-09-12T09:31:38;22.60;99.90
26081;DHT22;13991;51.174;4.438;2022-09-12T09:34:22;22.70;99.90
26081;DHT22;13991;51.174;4.438;2022-09-12T09:36:57;22.80;99.90
26081;DHT22;13991;51.174;4.438;2022-09-12T09:39:49;22.90;99.90
26081;DHT22;13991;51.174;4.438;2022-09-12T09:45:21;22.90;99.90
26081;DHT22;13991;51.174;4.438;2022-09-12T09:50:32;23.00;99.90
26081;DHT22;13991;51.174;4.438;2022-09-12T09:52:59;23.20;99.90
26081;DHT22;13991;51.174;4.438;2022-09-12T09:55:32;23.10;99.90
26081;DHT22;13991;51.174;4.438;2022-09-12T09:57:58;23.30;99.90
26081;DHT22;13991;51.174;4.438;2022-09-12T10:00:30;23.40;99.90
26081;DHT22;13991;51.174;4.438;2022-09-12T10:03:23;23.40;99.90
26081;DHT22;13991;51.174;4.438;2022-09-12T10:05:52;23.60;99.90
26081;DHT22;13991;51.174;4.438;2022-09-12T10:08:27;23.70;99.90
26081;DHT22;13991;51.174;4.438;2022-09-12T10:10:54;23.80;99.90
26081;DHT22;13991;51.174;4.438;2022-09-12T10:13:51;23.80;99.90
26081;DHT22;13991;51.174;4.438;2022-09-12T10:16:22;24.00;99.90
26081;DHT22;13991;51.174;4.438;2022-09-12T10:18:49;24.10;99.90
26081;DHT22;13991;51.174;4.438;2022-09-12T10:21:31;24.00;99.90
26081;DHT22;13991;51.174;4.438;2022-09-12T10:24:25;23.90;99.90
26081;DHT22;13991;51.174;4.438;2022-09-12T10:27:04;24.10;99.90
26081;DHT22;13991;51.174;4.438;2022-09-12T10:29:32;24.10;99.90
26081;DHT22;13991;51.174;4.438;2022-09-12T10:32:05;24.20;99.90
26081;DHT22;13991;51.174;4.438;2022-09-12T10:34:43;24.30;99.90
26081;DHT22;13991;51.174;4.438;2022-09-12T10:37:31;24.40;99.90
26081;DHT22;13991;51.174;4.438;2022-09-12T10:39:58;24.40;99.90
26081;DHT22;13991;51.174;4.438;2022-09-12T10:42:51;24.40;99.90
26081;DHT22;13991;51.174;4.438;2022-09-12T10:47:48;24.70;99.90
26081;DHT22;13991;51.174;4.438;2022-09-12T10:50:41;24.70;99.90
26081;DHT22;13991;51.174;4.438;2022-09-12T10:53:23;24.80;99.90
26081;DHT22;13991;51.174;4.438;2022-09-12T10:56:28;24.80;99.90
26081;DHT22;13991;51.174;4.438;2022-09-12T11:06:56;24.90;99.90
26081;DHT22;13991;51.174;4.438;2022-09-12T11:09:47;24.90;99.90
26081;DHT22;13991;51.174;4.438;2022-09-12T11:17:59;25.00;99.90
26081;DHT22;13991;51.174;4.438;2022-09-12T11:23:25;24.90;99.90
26081;DHT22;13991;51.174;4.438;2022-09-12T11:28:42;25.00;99.90
26081;DHT22;13991;51.174;4.438;2022-09-12T11:33:49;24.90;99.90
26081;DHT22;13991;51.174;4.438;2022-09-12T11:36:23;25.20;99.80
26081;DHT22;13991;51.174;4.438;2022-09-12T11:39:13;25.20;99.90
26081;DHT22;13991;51.174;4.438;2022-09-12T11:41:41;25.50;99.90
26081;DHT22;13991;51.174;4.438;2022-09-12T11:46:43;25.70;97.70
26081;DHT22;13991;51.174;4.438;2022-09-12T11:55:01;25.90;96.90
26081;DHT22;13991;51.174;4.438;2022-09-12T11:57:48;25.60;95.40
26081;DHT22;13991;51.174;4.438;2022-09-12T12:08:19;25.70;94.80
26081;DHT22;13991;51.174;4.438;2022-09-12T12:11:00;25.90;94.80
26081;DHT22;13991;51.174;4.438;2022-09-12T12:13:54;26.10;94.00
26081;DHT22;13991;51.174;4.438;2022-09-12T12:16:30;26.10;93.50
26081;DHT22;13991;51.174;4.438;2022-09-12T12:18:59;26.20;95.00
26081;DHT22;13991;51.174;4.438;2022-09-12T12:21:45;26.00;94.30
26081;DHT22;13991;51.174;4.438;2022-09-12T12:34:31;26.20;96.00
26081;DHT22;13991;51.174;4.438;2022-09-12T12:36:58;26.20;93.50
26081;DHT22;13991;51.174;4.438;2022-09-12T12:47:32;26.60;91.90
26081;DHT22;13991;51.174;4.438;2022-09-12T12:49:59;26.50;93.10
26081;DHT22;13991;51.174;4.438;2022-09-12T12:52:41;26.40;92.50
26081;DHT22;13991;51.174;4.438;2022-09-12T12:55:14;26.30;91.60
26081;DHT22;13991;51.174;4.438;2022-09-12T12:57:50;26.60;91.20
26081;DHT22;13991;51.174;4.438;2022-09-12T13:05:59;26.80;92.30
26081;DHT22;13991;51.174;4.438;2022-09-12T13:08:31;26.80;91.80
26081;DHT22;13991;51.174;4.438;2022-09-12T13:16:10;26.80;91.50
26081;DHT22;13991;51.174;4.438;2022-09-12T13:18:40;26.80;91.20
26081;DHT22;13991;51.174;4.438;2022-09-12T13:21:20;26.90;92.10
26081;DHT22;13991;51.174;4.438;2022-09-12T13:24:04;26.60;91.90
26081;DHT22;13991;51.174;4.438;2022-09-12T13:26:39;26.70;92.10
26081;DHT22;13991;51.174;4.438;2022-09-12T13:29:17;26.80;93.80
26081;DHT22;13991;51.174;4.438;2022-09-12T13:31:46;27.00;92.60
26081;DHT22;13991;51.174;4.438;2022-09-12T13:34:18;27.10;91.30
26081;DHT22;13991;51.174;4.438;2022-09-12T13:39:46;27.20;93.10
26081;DHT22;13991;51.174;4.438;2022-09-12T13:42:41;27.30;90.90
26081;DHT22;13991;51.174;4.438;2022-09-12T13:45:22;27.20;90.00
26081;DHT22;13991;51.174;4.438;2022-09-12T13:47:58;26.70;91.50
26081;DHT22;13991;51.174;4.438;2022-09-12T13:50:41;26.80;91.30
26081;DHT22;13991;51.174;4.438;2022-09-12T13:53:15;26.80;93.30
26081;DHT22;13991;51.174;4.438;2022-09-12T13:55:44;27.00;90.70
26081;DHT22;13991;51.174;4.438;2022-09-12T14:00:40;27.10;91.10
26081;DHT22;13991;51.174;4.438;2022-09-12T14:03:27;27.10;90.20
26081;DHT22;13991;51.174;4.438;2022-09-12T14:06:12;27.30;90.80
26081;DHT22;13991;51.174;4.438;2022-09-12T14:08:38;27.50;90.40
26081;DHT22;13991;51.174;4.438;2022-09-12T14:11:21;27.50;89.90
26081;DHT22;13991;51.174;4.438;2022-09-12T14:13:48;27.70;89.20
26081;DHT22;13991;51.174;4.438;2022-09-12T14:16:17;27.80;90.60
26081;DHT22;13991;51.174;4.438;2022-09-12T14:18:46;27.60;91.40
26081;DHT22;13991;51.174;4.438;2022-09-12T14:23:58;27.40;89.20
26081;DHT22;13991;51.174;4.438;2022-09-12T14:26:25;27.50;89.70
26081;DHT22;13991;51.174;4.438;2022-09-12T14:28:52;27.70;90.20
26081;DHT22;13991;51.174;4.438;2022-09-12T14:31:30;27.80;90.30
26081;DHT22;13991;51.174;4.438;2022-09-12T14:34:10;27.80;90.60
26081;DHT22;13991;51.174;4.438;2022-09-12T14:36:45;27.70;88.50
26081;DHT22;13991;51.174;4.438;2022-09-12T14:41:50;27.80;90.20
26081;DHT22;13991;51.174;4.438;2022-09-12T14:44:21;27.80;88.80
26081;DHT22;13991;51.174;4.438;2022-09-12T14:46:48;27.80;88.70
26081;DHT22;13991;51.174;4.438;2022-09-12T14:49:18;27.80;90.30
26081;DHT22;13991;51.174;4.438;2022-09-12T14:51:55;27.80;89.00
26081;DHT22;13991;51.174;4.438;2022-09-12T14:56:58;28.00;89.40
26081;DHT22;13991;51.174;4.438;2022-09-12T15:04:42;27.90;88.20
26081;DHT22;13991;51.174;4.438;2022-09-12T15:07:27;27.70;90.70
26081;DHT22;13991;51.174;4.438;2022-09-12T15:09:53;27.60;90.60
26081;DHT22;13991;51.174;4.438;2022-09-12T15:12:19;27.60;90.70
26081;DHT22;13991;51.174;4.438;2022-09-12T15:14:45;27.50;91.70
26081;DHT22;13991;51.174;4.438;2022-09-12T15:17:10;27.60;87.90
26081;DHT22;13991;51.174;4.438;2022-09-12T15:19:36;27.70;89.40
26081;DHT22;13991;51.174;4.438;2022-09-12T15:22:01;27.70;91.40
26081;DHT22;13991;51.174;4.438;2022-09-12T15:24:27;27.70;89.20
26081;DHT22;13991;51.174;4.438;2022-09-12T15:26:53;27.90;90.10
26081;DHT22;13991;51.174;4.438;2022-09-12T15:29:19;27.90;90.50
26081;DHT22;13991;51.174;4.438;2022-09-12T15:31:46;27.80;88.80
26081;DHT22;13991;51.174;4.438;2022-09-12T15:34:12;27.90;90.00
26081;DHT22;13991;51.174;4.438;2022-09-12T15:36:37;27.90;88.10
26081;DHT22;13991;51.174;4.438;2022-09-12T15:39:03;27.90;87.70
26081;DHT22;13991;51.174;4.438;2022-09-12T15:41:35;27.60;86.50
26081;DHT22;13991;51.174;4.438;2022-09-12T15:44:10;27.50;87.20
26081;DHT22;13991;51.174;4.438;2022-09-12T15:46:36;27.40;89.40
26081;DHT22;13991;51.174;4.438;2022-09-12T15:49:02;27.40;90.20
26081;DHT22;13991;51.174;4.438;2022-09-12T15:51:28;27.40;91.10
26081;DHT22;13991;51.174;4.438;2022-09-12T15:53:54;27.30;90.20
26081;DHT22;13991;51.174;4.438;2022-09-12T15:56:21;27.30;91.80
26081;DHT22;13991;51.174;4.438;2022-09-12T15:58:47;27.30;90.90
26081;DHT22;13991;51.174;4.438;2022-09-12T16:01:14;27.30;91.90
26081;DHT22;13991;51.174;4.438;2022-09-12T16:03:41;27.30;90.30
26081;DHT22;13991;51.174;4.438;2022-09-12T16:06:06;27.30;90.70
26081;DHT22;13991;51.174;4.438;2022-09-12T16:08:34;27.40;91.10
26081;DHT22;13991;51.174;4.438;2022-09-12T16:11:23;27.30;91.40
26081;DHT22;13991;51.174;4.438;2022-09-12T16:13:51;27.30;90.50
26081;DHT22;13991;51.174;4.438;2022-09-12T16:16:16;27.20;90.40
26081;DHT22;13991;51.174;4.438;2022-09-12T16:18:42;27.10;90.30
26081;DHT22;13991;51.174;4.438;2022-09-12T16:21:08;27.10;90.30
26081;DHT22;13991;51.174;4.438;2022-09-12T16:23:33;26.90;90.70
26081;DHT22;13991;51.174;4.438;2022-09-12T16:26:04;26.80;91.30
26081;DHT22;13991;51.174;4.438;2022-09-12T16:28:31;26.80;91.90
26081;DHT22;13991;51.174;4.438;2022-09-12T16:31:01;26.70;92.30
26081;DHT22;13991;51.174;4.438;2022-09-12T16:33:28;26.70;92.10
26081;DHT22;13991;51.174;4.438;2022-09-12T16:36:06;26.70;91.70
26081;DHT22;13991;51.174;4.438;2022-09-12T16:38:33;26.60;90.60
26081;DHT22;13991;51.174;4.438;2022-09-12T16:41:04;26.70;92.80
26081;DHT22;13991;51.174;4.438;2022-09-12T16:43:32;26.70;91.70
26081;DHT22;13991;51.174;4.438;2022-09-12T16:48:33;26.60;92.00
26081;DHT22;13991;51.174;4.438;2022-09-12T16:51:00;26.50;92.20
26081;DHT22;13991;51.174;4.438;2022-09-12T16:53:38;26.40;91.90
26081;DHT22;13991;51.174;4.438;2022-09-12T16:56:04;26.40;92.00
26081;DHT22;13991;51.174;4.438;2022-09-12T16:58:35;26.40;91.60
26081;DHT22;13991;51.174;4.438;2022-09-12T17:01:03;26.40;91.60
26081;DHT22;13991;51.174;4.438;2022-09-12T17:03:29;26.40;91.40
26081;DHT22;13991;51.174;4.438;2022-09-12T17:05:59;26.40;91.50
26081;DHT22;13991;51.174;4.438;2022-09-12T17:08:27;26.40;92.10
26081;DHT22;13991;51.174;4.438;2022-09-12T17:11:01;26.40;92.00
26081;DHT22;13991;51.174;4.438;2022-09-12T17:13:28;26.40;92.40
26081;DHT22;13991;51.174;4.438;2022-09-12T17:15:54;26.30;92.20
26081;DHT22;13991;51.174;4.438;2022-09-12T17:18:20;26.30;92.40
26081;DHT22;13991;51.174;4.438;2022-09-12T17:20:45;26.20;92.60
26081;DHT22;13991;51.174;4.438;2022-09-12T17:23:11;26.10;92.60
26081;DHT22;13991;51.174;4.438;2022-09-12T17:25:37;26.00;92.70
26081;DHT22;13991;51.174;4.438;2022-09-12T17:28:02;26.00;92.70
26081;DHT22;13991;51.174;4.438;2022-09-12T17:30:34;25.90;92.80
26081;DHT22;13991;51.174;4.438;2022-09-12T17:32:59;25.80;93.10
26081;DHT22;13991;51.174;4.438;2022-09-12T17:35:25;25.70;93.30
26081;DHT22;13991;51.174;4.438;2022-09-12T17:37:51;25.60;93.50
26081;DHT22;13991;51.174;4.438;2022-09-12T17:40:18;25.60;93.60
26081;DHT22;13991;51.174;4.438;2022-09-12T17:42:43;25.60;93.80
26081;DHT22;13991;51.174;4.438;2022-09-12T17:45:10;25.50;94.00
26081;DHT22;13991;51.174;4.438;2022-09-12T17:47:37;25.40;94.40
26081;DHT22;13991;51.174;4.438;2022-09-12T17:50:03;25.30;94.70
26081;DHT22;13991;51.174;4.438;2022-09-12T17:52:29;25.30;94.60
26081;DHT22;13991;51.174;4.438;2022-09-12T17:54:55;25.20;94.90
26081;DHT22;13991;51.174;4.438;2022-09-12T17:57:21;25.10;95.00
26081;DHT22;13991;51.174;4.438;2022-09-12T17:59:47;24.90;95.60
26081;DHT22;13991;51.174;4.438;2022-09-12T18:02:12;24.80;95.70
26081;DHT22;13991;51.174;4.438;2022-09-12T18:04:43;24.80;95.90
26081;DHT22;13991;51.174;4.438;2022-09-12T18:07:14;24.80;95.80
26081;DHT22;13991;51.174;4.438;2022-09-12T18:09:40;24.70;96.00
26081;DHT22;13991;51.174;4.438;2022-09-12T18:12:09;24.60;96.20
26081;DHT22;13991;51.174;4.438;2022-09-12T18:14:35;24.60;96.40
26081;DHT22;13991;51.174;4.438;2022-09-12T18:17:02;24.50;96.50
26081;DHT22;13991;51.174;4.438;2022-09-12T18:19:29;24.50;96.80
26081;DHT22;13991;51.174;4.438;2022-09-12T18:21:55;24.40;96.70